首页
METAR-TAF:

METAR-TAF

机场 :

Pinedale, 怀俄明州, 美国

纬度: 42-47-43N, 经度: 109-48-25W, 海拔: 2160米

当前天气观测

该预报发布于15分钟前的21:15 UTC
风速20节,风向西转西北
温度 20°C
湿度 26%
气压 1021 hPa
能見度: 16.1公里
散云层高于7500英尺
阴天层高于11000英尺

METAR: KPNA 182115Z AUTO 30020KT 10SM SCT075 OVC110 20/00 A3014 RMK AO2

时间: 15:30 (21:30 UTC)

预报

该预报发布于3小时和59分钟前的17:31 UTC
预报有效从18日的 18点(UTC)到 19日的 18点(UTC)
风速10节,风向西北
能見度: 10公里
散云层高于11000英尺
附近有阵雨
从 18日的 2200点(UTC)
风速16节,风向西转西北,有时为24节阵风
能見度: 10公里
散云层高于5000英尺
多云层高于12000英尺
附近有阵雨
从 19日的 0400点(UTC)
风速16节,风向西转西北,有时为22节阵风
能見度: 10公里
散云层高于4000英尺
多云层高于12000英尺
从 19日的 0700点(UTC)
风速4节,风向多变
能見度: 10公里
散云层高于4000英尺
散云层高于12000英尺

TAF: KPNA 181731Z 1818/1918 32010KT P6SM VCSH SCT110 FM182200 30016G24KT P6SM VCSH SCT050 BKN120 FM190400 30016G22KT P6SM SCT040 BKN120 FM190700 VRB04KT P6SM SCT040 SCT120 AMD LTD TO CLD VIS AND WIND

超过4000个机场的气象观测和天气预报(METAR&TAF报告)。

可查询的气象台以黄色和红色小点在地图上表示。

将鼠标移到小点上方,可查看气象台名称。

然后点击查看天气观测和预报。

如需切换地图:点击带黑十字的绿色按钮放大地图;点击带横线的绿色按钮缩小地图;或者点击绿色箭头查看邻近地区的地图。


METAR-TAF: